sensor_id;sensor_type;location;lat;lon;timestamp;pressure;altitude;pressure_sealevel;temperature;humidity
70314;BME280;57725;47.526;18.986;2022-11-20T00:01:15;99494.78;;;7.96;92.01
70314;BME280;57725;47.526;18.986;2022-11-20T00:03:41;99491.34;;;7.95;92.20
70314;BME280;57725;47.526;18.986;2022-11-20T00:06:13;99493.09;;;7.95;92.07
70314;BME280;57725;47.526;18.986;2022-11-20T00:08:39;99489.63;;;7.94;91.98
70314;BME280;57725;47.526;18.986;2022-11-20T00:11:10;99482.69;;;7.95;92.06
70314;BME280;57725;47.526;18.986;2022-11-20T00:13:36;99486.19;;;7.94;92.08
70314;BME280;57725;47.526;18.986;2022-11-20T00:16:04;99491.38;;;7.94;91.98
70314;BME280;57725;47.526;18.986;2022-11-20T00:18:29;99480.97;;;7.94;92.13
70314;BME280;57725;47.526;18.986;2022-11-20T00:21:22;99487.09;;;7.93;92.30
70314;BME280;57725;47.526;18.986;2022-11-20T00:23:48;99492.28;;;7.93;92.24
70314;BME280;57725;47.526;18.986;2022-11-20T00:26:16;99491.44;;;7.92;92.11
70314;BME280;57725;47.526;18.986;2022-11-20T00:28:43;99489.69;;;7.93;92.11
70314;BME280;57725;47.526;18.986;2022-11-20T00:31:13;99476.72;;;7.91;92.04
70314;BME280;57725;47.526;18.986;2022-11-20T00:33:39;99474.13;;;7.91;92.21
70314;BME280;57725;47.526;18.986;2022-11-20T00:36:10;99483.69;;;7.91;92.13
70314;BME280;57725;47.526;18.986;2022-11-20T00:38:38;99482.78;;;7.92;92.10
70314;BME280;57725;47.526;18.986;2022-11-20T00:41:09;99503.59;;;7.92;92.03
70314;BME280;57725;47.526;18.986;2022-11-20T00:43:37;99519.16;;;7.93;92.13
70314;BME280;57725;47.526;18.986;2022-11-20T00:48:38;99496.69;;;7.91;91.97
70314;BME280;57725;47.526;18.986;2022-11-20T00:51:08;99493.25;;;7.90;91.88
70314;BME280;57725;47.526;18.986;2022-11-20T00:53:34;99491.50;;;7.91;92.01
70314;BME280;57725;47.526;18.986;2022-11-20T00:56:01;99479.38;;;7.90;92.08
70314;BME280;57725;47.526;18.986;2022-11-20T00:58:32;99482.84;;;7.90;91.99
70314;BME280;57725;47.526;18.986;2022-11-20T01:03:43;99486.41;;;7.88;92.21
70314;BME280;57725;47.526;18.986;2022-11-20T01:06:13;99484.66;;;7.88;91.99
70314;BME280;57725;47.526;18.986;2022-11-20T01:08:39;99489.00;;;7.88;92.06
70314;BME280;57725;47.526;18.986;2022-11-20T01:11:10;99497.66;;;7.88;91.85
70314;BME280;57725;47.526;18.986;2022-11-20T01:13:42;99496.81;;;7.88;91.99
70314;BME280;57725;47.526;18.986;2022-11-20T01:16:11;99488.16;;;7.87;92.15
70314;BME280;57725;47.526;18.986;2022-11-20T01:18:40;99488.16;;;7.87;92.03
70314;BME280;57725;47.526;18.986;2022-11-20T01:21:09;99490.75;;;7.87;92.00
70314;BME280;57725;47.526;18.986;2022-11-20T01:23:36;99494.22;;;7.88;92.09
70314;BME280;57725;47.526;18.986;2022-11-20T01:26:04;99509.88;;;7.86;92.20
70314;BME280;57725;47.526;18.986;2022-11-20T01:28:33;99505.53;;;7.87;92.13
70314;BME280;57725;47.526;18.986;2022-11-20T01:30:59;99498.63;;;7.86;92.26
70314;BME280;57725;47.526;18.986;2022-11-20T01:33:24;99494.25;;;7.86;91.94
70314;BME280;57725;47.526;18.986;2022-11-20T01:35:51;99481.25;;;7.86;91.86
70314;BME280;57725;47.526;18.986;2022-11-20T01:38:16;99472.59;;;7.86;92.04
70314;BME280;57725;47.526;18.986;2022-11-20T01:40:44;99468.28;;;7.85;92.00
70314;BME280;57725;47.526;18.986;2022-11-20T01:43:20;99470.91;;;7.85;91.99
70314;BME280;57725;47.526;18.986;2022-11-20T01:46:01;99463.09;;;7.85;92.04
70314;BME280;57725;47.526;18.986;2022-11-20T01:49:01;99475.28;;;7.84;92.20
70314;BME280;57725;47.526;18.986;2022-11-20T01:51:42;99464.88;;;7.84;91.94
70314;BME280;57725;47.526;18.986;2022-11-20T01:54:19;99460.47;;;7.85;91.79
70314;BME280;57725;47.526;18.986;2022-11-20T01:56:48;99450.16;;;7.83;91.89
70314;BME280;57725;47.526;18.986;2022-11-20T01:59:17;99454.50;;;7.83;91.91
70314;BME280;57725;47.526;18.986;2022-11-20T02:01:43;99456.25;;;7.82;92.01
70314;BME280;57725;47.526;18.986;2022-11-20T02:04:09;99468.38;;;7.83;91.97
70314;BME280;57725;47.526;18.986;2022-11-20T02:06:48;99454.56;;;7.81;91.98
70314;BME280;57725;47.526;18.986;2022-11-20T02:09:15;99461.53;;;7.81;91.98
70314;BME280;57725;47.526;18.986;2022-11-20T02:11:41;99467.56;;;7.81;92.02
70314;BME280;57725;47.526;18.986;2022-11-20T02:14:09;99464.13;;;7.81;91.83
70314;BME280;57725;47.526;18.986;2022-11-20T02:16:46;99464.97;;;7.81;92.02
70314;BME280;57725;47.526;18.986;2022-11-20T02:19:26;99453.72;;;7.81;91.91
70314;BME280;57725;47.526;18.986;2022-11-20T02:22:00;99452.88;;;7.80;92.08
70314;BME280;57725;47.526;18.986;2022-11-20T02:24:27;99454.63;;;7.80;92.08
70314;BME280;57725;47.526;18.986;2022-11-20T02:27:05;99459.81;;;7.80;92.08
70314;BME280;57725;47.526;18.986;2022-11-20T02:29:39;99471.09;;;7.80;92.13
70314;BME280;57725;47.526;18.986;2022-11-20T02:32:06;99453.78;;;7.79;92.06
70314;BME280;57725;47.526;18.986;2022-11-20T02:34:33;99438.16;;;7.79;91.96
70314;BME280;57725;47.526;18.986;2022-11-20T02:37:01;99433.84;;;7.78;91.97
70314;BME280;57725;47.526;18.986;2022-11-20T02:39:27;99434.72;;;7.79;92.00
70314;BME280;57725;47.526;18.986;2022-11-20T02:41:54;99439.91;;;7.79;91.98
70314;BME280;57725;47.526;18.986;2022-11-20T02:44:20;99436.47;;;7.78;91.98
70314;BME280;57725;47.526;18.986;2022-11-20T02:46:46;99433.06;;;7.76;92.11
70314;BME280;57725;47.526;18.986;2022-11-20T02:49:11;99435.63;;;7.78;92.04
70314;BME280;57725;47.526;18.986;2022-11-20T02:51:36;99438.22;;;7.78;91.84
70314;BME280;57725;47.526;18.986;2022-11-20T02:54:02;99446.91;;;7.77;91.89
70314;BME280;57725;47.526;18.986;2022-11-20T02:56:28;99447.78;;;7.77;92.00
70314;BME280;57725;47.526;18.986;2022-11-20T02:58:56;99452.13;;;7.77;91.84
70314;BME280;57725;47.526;18.986;2022-11-20T03:01:22;99438.28;;;7.76;92.10
70314;BME280;57725;47.526;18.986;2022-11-20T03:03:50;99432.22;;;7.76;91.88
70314;BME280;57725;47.526;18.986;2022-11-20T03:06:16;99425.25;;;7.76;91.92
70314;BME280;57725;47.526;18.986;2022-11-20T03:08:42;99429.63;;;7.76;91.95
70314;BME280;57725;47.526;18.986;2022-11-20T03:11:08;99433.97;;;7.75;92.14
70314;BME280;57725;47.526;18.986;2022-11-20T03:13:34;99438.31;;;7.75;92.16
70314;BME280;57725;47.526;18.986;2022-11-20T03:16:20;99433.13;;;7.75;91.88
70314;BME280;57725;47.526;18.986;2022-11-20T03:18:46;99418.41;;;7.74;91.90
70314;BME280;57725;47.526;18.986;2022-11-20T03:21:13;99421.88;;;7.74;91.94
70314;BME280;57725;47.526;18.986;2022-11-20T03:23:41;99438.38;;;7.73;91.93
70314;BME280;57725;47.526;18.986;2022-11-20T03:28:39;99453.09;;;7.74;92.15
70314;BME280;57725;47.526;18.986;2022-11-20T03:31:13;99453.16;;;7.73;91.97
70314;BME280;57725;47.526;18.986;2022-11-20T03:33:40;99446.19;;;7.73;91.99
70314;BME280;57725;47.526;18.986;2022-11-20T03:36:07;99434.97;;;7.73;91.95
70314;BME280;57725;47.526;18.986;2022-11-20T03:38:33;99440.97;;;7.73;91.98
70314;BME280;57725;47.526;18.986;2022-11-20T03:41:20;99440.97;;;7.73;91.96
70314;BME280;57725;47.526;18.986;2022-11-20T03:43:49;99437.56;;;7.73;92.10
70314;BME280;57725;47.526;18.986;2022-11-20T03:46:14;99433.25;;;7.72;92.01
70314;BME280;57725;47.526;18.986;2022-11-20T03:48:40;99428.91;;;7.72;91.92
70314;BME280;57725;47.526;18.986;2022-11-20T03:51:11;99435.00;;;7.71;92.06
70314;BME280;57725;47.526;18.986;2022-11-20T03:53:39;99431.50;;;7.72;91.90
70314;BME280;57725;47.526;18.986;2022-11-20T03:56:08;99433.25;;;7.72;92.05
70314;BME280;57725;47.526;18.986;2022-11-20T03:58:35;99429.81;;;7.71;92.01
70314;BME280;57725;47.526;18.986;2022-11-20T04:01:14;99434.16;;;7.71;92.03
70314;BME280;57725;47.526;18.986;2022-11-20T04:03:42;99436.75;;;7.71;92.01
70314;BME280;57725;47.526;18.986;2022-11-20T04:06:09;99435.91;;;7.70;91.92
70314;BME280;57725;47.526;18.986;2022-11-20T04:08:37;99430.75;;;7.69;92.03
70314;BME280;57725;47.526;18.986;2022-11-20T04:11:14;99416.84;;;7.70;91.88
70314;BME280;57725;47.526;18.986;2022-11-20T04:13:45;99427.25;;;7.70;91.99
70314;BME280;57725;47.526;18.986;2022-11-20T04:16:11;99418.59;;;7.69;91.84
70314;BME280;57725;47.526;18.986;2022-11-20T04:18:36;99407.34;;;7.69;91.76
70314;BME280;57725;47.526;18.986;2022-11-20T04:21:03;99403.00;;;7.69;91.95
70314;BME280;57725;47.526;18.986;2022-11-20T04:23:29;99388.44;;;7.63;91.97
70314;BME280;57725;47.526;18.986;2022-11-20T04:25:54;99395.25;;;7.68;92.02
70314;BME280;57725;47.526;18.986;2022-11-20T04:28:22;99395.19;;;7.69;91.89
70314;BME280;57725;47.526;18.986;2022-11-20T04:30:50;99395.25;;;7.68;91.95
70314;BME280;57725;47.526;18.986;2022-11-20T04:33:15;99397.84;;;7.68;92.03
70314;BME280;57725;47.526;18.986;2022-11-20T04:35:40;99394.41;;;7.67;92.01
70314;BME280;57725;47.526;18.986;2022-11-20T04:38:06;99393.53;;;7.67;91.85
70314;BME280;57725;47.526;18.986;2022-11-20T04:40:31;99397.00;;;7.67;92.02
70314;BME280;57725;47.526;18.986;2022-11-20T04:42:56;99401.34;;;7.67;91.99
70314;BME280;57725;47.526;18.986;2022-11-20T04:45:24;99392.69;;;7.66;91.99
70314;BME280;57725;47.526;18.986;2022-11-20T04:47:51;99388.34;;;7.67;92.13
70314;BME280;57725;47.526;18.986;2022-11-20T04:50:20;99388.34;;;7.67;91.55
70314;BME280;57725;47.526;18.986;2022-11-20T04:52:46;99382.28;;;7.66;92.04
70314;BME280;57725;47.526;18.986;2022-11-20T04:55:11;99380.53;;;7.67;91.95
70314;BME280;57725;47.526;18.986;2022-11-20T04:57:36;99379.69;;;7.66;92.03
70314;BME280;57725;47.526;18.986;2022-11-20T05:00:02;99371.03;;;7.66;91.91
70314;BME280;57725;47.526;18.986;2022-11-20T05:02:33;99364.97;;;7.65;91.78
70314;BME280;57725;47.526;18.986;2022-11-20T05:05:07;99374.53;;;7.64;92.08
70314;BME280;57725;47.526;18.986;2022-11-20T05:07:33;99384.03;;;7.66;92.02
70314;BME280;57725;47.526;18.986;2022-11-20T05:09:58;99386.69;;;7.64;91.98
70314;BME280;57725;47.526;18.986;2022-11-20T05:12:26;99388.44;;;7.63;91.90
70314;BME280;57725;47.526;18.986;2022-11-20T05:14:53;99387.53;;;7.64;92.02
70314;BME280;57725;47.526;18.986;2022-11-20T05:17:19;99374.53;;;7.64;91.97
70314;BME280;57725;47.526;18.986;2022-11-20T05:19:44;99378.91;;;7.64;92.18
70314;BME280;57725;47.526;18.986;2022-11-20T05:22:09;99372.84;;;7.63;91.84
70314;BME280;57725;47.526;18.986;2022-11-20T05:24:37;99369.38;;;7.63;91.91
70314;BME280;57725;47.526;18.986;2022-11-20T05:27:05;99365.03;;;7.63;92.00
70314;BME280;57725;47.526;18.986;2022-11-20T05:29:33;99358.97;;;7.63;92.17
70314;BME280;57725;47.526;18.986;2022-11-20T05:32:03;99349.44;;;7.63;92.00
70314;BME280;57725;47.526;18.986;2022-11-20T05:34:30;99343.38;;;7.63;92.01
70314;BME280;57725;47.526;18.986;2022-11-20T05:36:58;99340.13;;;7.58;92.00
70314;BME280;57725;47.526;18.986;2022-11-20T05:39:23;99347.72;;;7.62;91.97
70314;BME280;57725;47.526;18.986;2022-11-20T05:41:48;99352.94;;;7.62;91.97
70314;BME280;57725;47.526;18.986;2022-11-20T05:44:34;99364.25;;;7.61;92.02
70314;BME280;57725;47.526;18.986;2022-11-20T05:46:59;99361.63;;;7.61;91.82
70314;BME280;57725;47.526;18.986;2022-11-20T05:49:24;99366.84;;;7.61;92.08
70314;BME280;57725;47.526;18.986;2022-11-20T05:51:52;99359.03;;;7.61;91.81
70314;BME280;57725;47.526;18.986;2022-11-20T05:54:20;99368.63;;;7.61;91.93
70314;BME280;57725;47.526;18.986;2022-11-20T05:56:45;99386.84;;;7.61;91.90
70314;BME280;57725;47.526;18.986;2022-11-20T05:59:13;99380.78;;;7.60;92.02
70314;BME280;57725;47.526;18.986;2022-11-20T06:01:38;99384.25;;;7.61;92.02
70314;BME280;57725;47.526;18.986;2022-11-20T06:04:04;99384.25;;;7.61;92.05
70314;BME280;57725;47.526;18.986;2022-11-20T06:06:29;99382.53;;;7.60;91.85
70314;BME280;57725;47.526;18.986;2022-11-20T06:08:55;99385.13;;;7.60;92.05
70314;BME280;57725;47.526;18.986;2022-11-20T06:11:24;99392.94;;;7.60;92.01
70314;BME280;57725;47.526;18.986;2022-11-20T06:13:50;99392.09;;;7.59;92.06
70314;BME280;57725;47.526;18.986;2022-11-20T06:16:20;99384.28;;;7.59;91.88
70314;BME280;57725;47.526;18.986;2022-11-20T06:18:47;99378.25;;;7.59;91.94
70314;BME280;57725;47.526;18.986;2022-11-20T06:21:15;99385.19;;;7.58;92.06
70314;BME280;57725;47.526;18.986;2022-11-20T06:23:46;99368.75;;;7.58;91.88
70314;BME280;57725;47.526;18.986;2022-11-20T06:26:14;99375.69;;;7.57;92.11
70314;BME280;57725;47.526;18.986;2022-11-20T06:28:40;99384.28;;;7.59;92.00
70314;BME280;57725;47.526;18.986;2022-11-20T06:31:07;99380.00;;;7.58;91.83
70314;BME280;57725;47.526;18.986;2022-11-20T06:33:33;99388.69;;;7.57;91.97
70314;BME280;57725;47.526;18.986;2022-11-20T06:35:59;99391.31;;;7.57;92.08
70314;BME280;57725;47.526;18.986;2022-11-20T06:38:26;99405.16;;;7.58;92.01
70314;BME280;57725;47.526;18.986;2022-11-20T06:40:52;99409.50;;;7.57;92.04
70314;BME280;57725;47.526;18.986;2022-11-20T06:43:17;99412.13;;;7.57;91.90
70314;BME280;57725;47.526;18.986;2022-11-20T06:45:42;99418.16;;;7.58;91.91
70314;BME280;57725;47.526;18.986;2022-11-20T06:48:08;99409.56;;;7.56;91.90
70314;BME280;57725;47.526;18.986;2022-11-20T06:50:36;99413.88;;;7.57;92.07
70314;BME280;57725;47.526;18.986;2022-11-20T06:53:03;99419.06;;;7.57;92.18
70314;BME280;57725;47.526;18.986;2022-11-20T06:55:31;99410.41;;;7.56;92.02
70314;BME280;57725;47.526;18.986;2022-11-20T06:57:59;99415.63;;;7.56;92.01
70314;BME280;57725;47.526;18.986;2022-11-20T07:00:24;99407.81;;;7.56;92.05
70314;BME280;57725;47.526;18.986;2022-11-20T07:02:52;99410.41;;;7.56;91.98
70314;BME280;57725;47.526;18.986;2022-11-20T07:05:18;99397.50;;;7.53;92.26
70314;BME280;57725;47.526;18.986;2022-11-20T07:07:43;99403.50;;;7.55;92.04
70314;BME280;57725;47.526;18.986;2022-11-20T07:10:09;99402.66;;;7.55;92.08
70314;BME280;57725;47.526;18.986;2022-11-20T07:12:34;99400.91;;;7.55;91.99
70314;BME280;57725;47.526;18.986;2022-11-20T07:15:00;99403.50;;;7.55;91.87
70314;BME280;57725;47.526;18.986;2022-11-20T07:17:25;99411.31;;;7.55;91.93
70314;BME280;57725;47.526;18.986;2022-11-20T07:19:53;99421.72;;;7.55;91.98
70314;BME280;57725;47.526;18.986;2022-11-20T07:22:18;99431.28;;;7.55;91.96
70314;BME280;57725;47.526;18.986;2022-11-20T07:24:46;99429.53;;;7.55;92.03
70314;BME280;57725;47.526;18.986;2022-11-20T07:27:12;99426.94;;;7.55;92.17
70314;BME280;57725;47.526;18.986;2022-11-20T07:29:37;99422.63;;;7.54;92.07
70314;BME280;57725;47.526;18.986;2022-11-20T07:32:03;99423.56;;;7.52;92.09
70314;BME280;57725;47.526;18.986;2022-11-20T07:34:29;99426.06;;;7.55;92.03
70314;BME280;57725;47.526;18.986;2022-11-20T07:36:54;99427.81;;;7.54;92.15
70314;BME280;57725;47.526;18.986;2022-11-20T07:39:22;99429.56;;;7.54;92.10
70314;BME280;57725;47.526;18.986;2022-11-20T07:41:47;99434.78;;;7.54;91.94
70314;BME280;57725;47.526;18.986;2022-11-20T07:44:12;99429.56;;;7.54;92.03
70314;BME280;57725;47.526;18.986;2022-11-20T07:46:40;99436.53;;;7.53;92.23
70314;BME280;57725;47.526;18.986;2022-11-20T07:49:05;99431.34;;;7.53;91.96
70314;BME280;57725;47.526;18.986;2022-11-20T07:51:31;99428.72;;;7.53;92.09
70314;BME280;57725;47.526;18.986;2022-11-20T07:53:56;99433.94;;;7.53;92.33
70314;BME280;57725;47.526;18.986;2022-11-20T07:56:21;99429.63;;;7.52;92.07
70314;BME280;57725;47.526;18.986;2022-11-20T07:58:47;99428.72;;;7.53;91.93
70314;BME280;57725;47.526;18.986;2022-11-20T08:01:14;99427.94;;;7.51;92.21
70314;BME280;57725;47.526;18.986;2022-11-20T08:03:45;99423.56;;;7.52;92.10
70314;BME280;57725;47.526;18.986;2022-11-20T08:06:12;99421.88;;;7.51;92.23
70314;BME280;57725;47.526;18.986;2022-11-20T08:08:39;99421.81;;;7.52;92.10
70314;BME280;57725;47.526;18.986;2022-11-20T08:11:05;99408.88;;;7.51;92.20
70314;BME280;57725;47.526;18.986;2022-11-20T08:13:50;99412.31;;;7.51;92.09
70314;BME280;57725;47.526;18.986;2022-11-20T08:16:36;99419.28;;;7.51;92.25
70314;BME280;57725;47.526;18.986;2022-11-20T08:19:01;99418.44;;;7.50;92.28
70314;BME280;57725;47.526;18.986;2022-11-20T08:21:27;99427.16;;;7.49;92.12
70314;BME280;57725;47.526;18.986;2022-11-20T08:23:52;99421.88;;;7.51;92.17
70314;BME280;57725;47.526;18.986;2022-11-20T08:26:17;99414.16;;;7.49;92.15
70314;BME280;57725;47.526;18.986;2022-11-20T08:28:47;99408.88;;;7.51;92.38
70314;BME280;57725;47.526;18.986;2022-11-20T08:31:13;99406.28;;;7.51;92.41
70314;BME280;57725;47.526;18.986;2022-11-20T08:33:38;99407.22;;;7.50;92.09
70314;BME280;57725;47.526;18.986;2022-11-20T08:36:05;99407.22;;;7.50;92.17
70314;BME280;57725;47.526;18.986;2022-11-20T08:38:35;99422.72;;;7.51;92.36
70314;BME280;57725;47.526;18.986;2022-11-20T08:41:02;99420.13;;;7.51;92.10
70314;BME280;57725;47.526;18.986;2022-11-20T08:43:46;99416.69;;;7.51;92.42
70314;BME280;57725;47.526;18.986;2022-11-20T08:46:12;99419.28;;;7.51;92.33
70314;BME280;57725;47.526;18.986;2022-11-20T08:48:37;99417.63;;;7.50;92.39
70314;BME280;57725;47.526;18.986;2022-11-20T08:51:02;99421.88;;;7.51;92.28
70314;BME280;57725;47.526;18.986;2022-11-20T08:53:37;99425.34;;;7.51;92.40
70314;BME280;57725;47.526;18.986;2022-11-20T08:56:03;99427.16;;;7.49;92.42
70314;BME280;57725;47.526;18.986;2022-11-20T08:58:31;99435.75;;;7.51;92.43
70314;BME280;57725;47.526;18.986;2022-11-20T09:00:56;99432.28;;;7.51;92.31
70314;BME280;57725;47.526;18.986;2022-11-20T09:03:22;99430.63;;;7.50;92.58
70314;BME280;57725;47.526;18.986;2022-11-20T09:05:59;99440.09;;;7.51;92.40
70314;BME280;57725;47.526;18.986;2022-11-20T09:08:26;99440.94;;;7.51;92.18
70314;BME280;57725;47.526;18.986;2022-11-20T09:10:55;99440.94;;;7.51;92.38
70314;BME280;57725;47.526;18.986;2022-11-20T09:13:21;99447.91;;;7.51;92.49
70314;BME280;57725;47.526;18.986;2022-11-20T09:15:48;99438.41;;;7.50;92.39
70314;BME280;57725;47.526;18.986;2022-11-20T09:18:17;99445.28;;;7.51;92.46
70314;BME280;57725;47.526;18.986;2022-11-20T09:20:42;99441.84;;;7.50;92.48
70314;BME280;57725;47.526;18.986;2022-11-20T09:23:10;99444.44;;;7.50;92.48
70314;BME280;57725;47.526;18.986;2022-11-20T09:25:37;99444.44;;;7.50;92.36
70314;BME280;57725;47.526;18.986;2022-11-20T09:28:03;99441.84;;;7.50;92.44
70314;BME280;57725;47.526;18.986;2022-11-20T09:30:29;99433.13;;;7.51;92.53
70314;BME280;57725;47.526;18.986;2022-11-20T09:32:56;99439.19;;;7.52;92.48
70314;BME280;57725;47.526;18.986;2022-11-20T09:35:21;99432.28;;;7.51;92.36
70314;BME280;57725;47.526;18.986;2022-11-20T09:37:47;99428.84;;;7.50;92.53
70314;BME280;57725;47.526;18.986;2022-11-20T09:40:26;99430.53;;;7.51;92.39
70314;BME280;57725;47.526;18.986;2022-11-20T09:46:12;99436.63;;;7.50;92.27
70314;BME280;57725;47.526;18.986;2022-11-20T09:56:28;99429.69;;;7.51;92.56
70314;BME280;57725;47.526;18.986;2022-11-20T09:58:57;99422.72;;;7.51;92.65
70314;BME280;57725;47.526;18.986;2022-11-20T10:01:26;99418.44;;;7.50;92.33
70314;BME280;57725;47.526;18.986;2022-11-20T10:04:10;99414.94;;;7.51;92.56
70314;BME280;57725;47.526;18.986;2022-11-20T10:07:12;99410.56;;;7.52;92.66
70314;BME280;57725;47.526;18.986;2022-11-20T10:09:40;99416.63;;;7.52;92.72
70314;BME280;57725;47.526;18.986;2022-11-20T10:12:23;99407.13;;;7.51;92.72
70314;BME280;57725;47.526;18.986;2022-11-20T10:31:25;99374.09;;;7.53;92.82
70314;BME280;57725;47.526;18.986;2022-11-20T10:33:56;99367.22;;;7.52;92.75
70314;BME280;57725;47.526;18.986;2022-11-20T10:36:26;99375.84;;;7.53;92.76
70314;BME280;57725;47.526;18.986;2022-11-20T10:39:18;99369.81;;;7.52;92.78
70314;BME280;57725;47.526;18.986;2022-11-20T10:41:50;99369.81;;;7.52;92.87
70314;BME280;57725;47.526;18.986;2022-11-20T10:44:21;99369.75;;;7.54;92.65
70314;BME280;57725;47.526;18.986;2022-11-20T10:47:15;99369.75;;;7.54;92.70
70314;BME280;57725;47.526;18.986;2022-11-20T10:49:43;99369.81;;;7.52;92.85
70314;BME280;57725;47.526;18.986;2022-11-20T10:55:06;99372.34;;;7.54;92.75
70314;BME280;57725;47.526;18.986;2022-11-20T10:58:57;99368.00;;;7.54;92.87
70314;BME280;57725;47.526;18.986;2022-11-20T11:00:50;99372.34;;;7.54;92.83
70314;BME280;57725;47.526;18.986;2022-11-20T11:03:28;99379.25;;;7.55;92.74
70314;BME280;57725;47.526;18.986;2022-11-20T11:06:07;99387.91;;;7.55;92.88
70314;BME280;57725;47.526;18.986;2022-11-20T11:08:39;99390.50;;;7.55;92.75
70314;BME280;57725;47.526;18.986;2022-11-20T11:11:27;99382.69;;;7.55;92.98
70314;BME280;57725;47.526;18.986;2022-11-20T11:14:04;99387.06;;;7.55;92.86
70314;BME280;57725;47.526;18.986;2022-11-20T11:16:32;99387.97;;;7.54;92.83
70314;BME280;57725;47.526;18.986;2022-11-20T11:19:05;99390.50;;;7.55;93.01
70314;BME280;57725;47.526;18.986;2022-11-20T11:21:31;99399.16;;;7.56;92.88
70314;BME280;57725;47.526;18.986;2022-11-20T11:24:14;99402.59;;;7.56;92.81
70314;BME280;57725;47.526;18.986;2022-11-20T11:26:58;99405.25;;;7.55;92.77
70314;BME280;57725;47.526;18.986;2022-11-20T11:29:24;99407.81;;;7.56;92.83
70314;BME280;57725;47.526;18.986;2022-11-20T11:32:23;99413.88;;;7.57;92.97
70314;BME280;57725;47.526;18.986;2022-11-20T11:35:01;99411.25;;;7.57;92.95
70314;BME280;57725;47.526;18.986;2022-11-20T11:37:33;99405.22;;;7.56;92.78
70314;BME280;57725;47.526;18.986;2022-11-20T11:39:59;99406.91;;;7.57;92.72
70314;BME280;57725;47.526;18.986;2022-11-20T11:42:27;99400.84;;;7.57;92.96
70314;BME280;57725;47.526;18.986;2022-11-20T11:44:54;99388.69;;;7.57;92.84
70314;BME280;57725;47.526;18.986;2022-11-20T11:47:45;99381.81;;;7.56;92.75
70314;BME280;57725;47.526;18.986;2022-11-20T11:53:04;99374.78;;;7.58;92.87
70314;BME280;57725;47.526;18.986;2022-11-20T11:55:43;99363.53;;;7.58;92.79
70314;BME280;57725;47.526;18.986;2022-11-20T11:58:11;99367.00;;;7.58;93.01
70314;BME280;57725;47.526;18.986;2022-11-20T12:00:41;99363.53;;;7.58;92.84
70314;BME280;57725;47.526;18.986;2022-11-20T12:03:21;99364.38;;;7.58;92.91
70314;BME280;57725;47.526;18.986;2022-11-20T12:05:57;99370.44;;;7.59;92.92
70314;BME280;57725;47.526;18.986;2022-11-20T12:08:32;99369.59;;;7.58;93.00
70314;BME280;57725;47.526;18.986;2022-11-20T12:11:23;99360.94;;;7.58;92.94
70314;BME280;57725;47.526;18.986;2022-11-20T12:13:55;99367.00;;;7.58;93.02
70314;BME280;57725;47.526;18.986;2022-11-20T12:16:24;99365.22;;;7.59;93.04
70314;BME280;57725;47.526;18.986;2022-11-20T12:19:01;99370.44;;;7.59;92.85
70314;BME280;57725;47.526;18.986;2022-11-20T12:21:39;99370.44;;;7.59;92.95
70314;BME280;57725;47.526;18.986;2022-11-20T12:39:57;99334.88;;;7.59;93.02
70314;BME280;57725;47.526;18.986;2022-11-20T12:48:18;99353.94;;;7.60;92.98
70314;BME280;57725;47.526;18.986;2022-11-20T12:51:20;99353.03;;;7.61;92.96
70314;BME280;57725;47.526;18.986;2022-11-20T12:57:09;99354.69;;;7.62;93.04
70314;BME280;57725;47.526;18.986;2022-11-20T13:00:10;99353.84;;;7.61;93.01
70314;BME280;57725;47.526;18.986;2022-11-20T13:05:24;99363.44;;;7.61;93.00
70314;BME280;57725;47.526;18.986;2022-11-20T13:07:53;99373.84;;;7.61;93.04
70314;BME280;57725;47.526;18.986;2022-11-20T13:10:31;99377.25;;;7.61;93.00
70314;BME280;57725;47.526;18.986;2022-11-20T13:13:08;99366.03;;;7.61;92.96
70314;BME280;57725;47.526;18.986;2022-11-20T13:15:48;99373.75;;;7.62;93.16
70314;BME280;57725;47.526;18.986;2022-11-20T13:18:16;99372.03;;;7.61;92.94
70314;BME280;57725;47.526;18.986;2022-11-20T13:20:44;99377.19;;;7.63;93.34
70314;BME280;57725;47.526;18.986;2022-11-20T13:23:23;99373.75;;;7.62;93.04
70314;BME280;57725;47.526;18.986;2022-11-20T13:26:22;99372.91;;;7.62;93.04
70314;BME280;57725;47.526;18.986;2022-11-20T13:29:00;99369.38;;;7.63;93.05
70314;BME280;57725;47.526;18.986;2022-11-20T13:31:34;99372.00;;;7.63;93.02
70314;BME280;57725;47.526;18.986;2022-11-20T13:34:03;99359.84;;;7.63;93.03
70314;BME280;57725;47.526;18.986;2022-11-20T13:36:32;99359.84;;;7.63;93.13
70314;BME280;57725;47.526;18.986;2022-11-20T13:39:00;99349.44;;;7.63;93.03
70314;BME280;57725;47.526;18.986;2022-11-20T13:41:35;99348.53;;;7.64;92.89
70314;BME280;57725;47.526;18.986;2022-11-20T13:46:45;99334.66;;;7.64;93.22
70314;BME280;57725;47.526;18.986;2022-11-20T13:49:37;99342.47;;;7.64;93.04
70314;BME280;57725;47.526;18.986;2022-11-20T13:57:59;99340.72;;;7.64;93.00
70314;BME280;57725;47.526;18.986;2022-11-20T14:00:29;99338.13;;;7.64;93.09
70314;BME280;57725;47.526;18.986;2022-11-20T14:03:09;99332.91;;;7.64;92.99
70314;BME280;57725;47.526;18.986;2022-11-20T14:05:45;99332.91;;;7.64;93.31
70314;BME280;57725;47.526;18.986;2022-11-20T14:08:23;99337.22;;;7.66;93.10
70314;BME280;57725;47.526;18.986;2022-11-20T14:10:52;99327.72;;;7.64;93.02
70314;BME280;57725;47.526;18.986;2022-11-20T14:13:29;99335.50;;;7.64;92.87
70314;BME280;57725;47.526;18.986;2022-11-20T14:16:00;99338.91;;;7.67;93.08
70314;BME280;57725;47.526;18.986;2022-11-20T14:18:26;99338.13;;;7.64;92.89
70314;BME280;57725;47.526;18.986;2022-11-20T14:20:51;99338.06;;;7.66;92.97
70314;BME280;57725;47.526;18.986;2022-11-20T14:23:25;99338.97;;;7.65;93.01
70314;BME280;57725;47.526;18.986;2022-11-20T14:25:50;99334.59;;;7.66;93.06
70314;BME280;57725;47.526;18.986;2022-11-20T14:28:25;99343.25;;;7.66;93.05
70314;BME280;57725;47.526;18.986;2022-11-20T14:30:51;99343.31;;;7.64;93.00
70314;BME280;57725;47.526;18.986;2022-11-20T14:33:23;99344.16;;;7.65;93.00